Time;durP1;ratioP1;P1;durP2;ratioP2;P2;SDS_P1;SDS_P2;PMS_P1;PMS_P2;Temp;Humidity;BMP_temperature;BMP_pressure;BME280_temperature;BME280_humidity;BME280_pressure;Samples;Min_cycle;Max_cycle;Signal;HPM_P1;HPM_P2
2021/06/04 00:00:58;;;;;;;;;15.75;14.25;;;;;21.45;61.41;101698.78;5079945;27;45385;-72
2021/06/04 00:06:45;;;;;;;;;15.75;13.75;;;;;21.38;61.94;101708.84;5079856;28;45324;-73
2021/06/04 00:09:12;;;;;;;;;12.50;12.25;;;;;21.30;62.17;101700.34;5079797;27;45607;-73
2021/06/04 00:11:43;;;;;;;;;14.25;14.00;;;;;21.33;62.07;101705.53;5079745;27;45383;-73
2021/06/04 00:14:16;;;;;;;;;15.75;13.75;;;;;21.32;62.14;101706.44;5080057;27;45312;-73
2021/06/04 00:17:06;;;;;;;;;14.00;13.00;;;;;21.36;62.28;101723.97;5079678;27;47548;-73
2021/06/04 00:19:35;;;;;;;;;15.75;15.75;;;;;21.36;62.60;101731.94;5079560;27;45422;-73
2021/06/04 00:22:07;;;;;;;;;14.50;14.00;;;;;21.38;62.67;101740.72;5079874;27;45391;-73
2021/06/04 00:24:36;;;;;;;;;16.25;13.00;;;;;21.36;62.26;101754.06;5079842;27;45500;-72
2021/06/04 00:27:01;;;;;;;;;14.50;13.25;;;;;21.40;62.71;101762.75;5079543;27;46442;-73
2021/06/04 00:29:27;;;;;;;;;18.75;16.50;;;;;21.37;62.03;101752.28;5079251;27;45403;-73
2021/06/04 00:31:54;;;;;;;;;15.25;15.00;;;;;21.39;62.49;101764.56;5079565;28;45302;-73
2021/06/04 00:34:19;;;;;;;;;20.25;18.00;;;;;21.37;62.33;101754.94;5079886;27;45260;-73
2021/06/04 00:36:45;;;;;;;;;17.75;16.50;;;;;21.25;62.99;101729.75;5079130;27;45321;-73
2021/06/04 00:39:13;;;;;;;;;18.00;16.25;;;;;21.35;62.53;101746.16;5079283;28;45333;-73
2021/06/04 00:41:54;;;;;;;;;20.50;16.75;;;;;21.32;62.71;101743.66;5079450;27;45370;-75
2021/06/04 00:44:20;;;;;;;;;17.50;16.75;;;;;21.32;63.46;101746.31;5079727;27;45274;-74
2021/06/04 00:46:45;;;;;;;;;19.25;17.50;;;;;21.32;63.42;101749.81;5079046;27;46614;-72
2021/06/04 00:49:12;;;;;;;;;21.25;20.00;;;;;21.31;63.40;101749.88;5077769;28;45303;-73
2021/06/04 00:51:40;;;;;;;;;22.50;19.25;;;;;21.33;63.05;101762.16;5079558;27;45558;-72
2021/06/04 00:54:08;;;;;;;;;20.75;19.50;;;;;21.24;63.16;101761.69;5079662;27;45404;-73
2021/06/04 00:56:36;;;;;;;;;23.00;20.75;;;;;21.35;62.91;101789.53;5078977;27;46760;-73
2021/06/04 00:59:04;;;;;;;;;24.00;20.75;;;;;21.40;63.31;101807.94;5079225;27;45589;-72
2021/06/04 01:01:31;;;;;;;;;20.50;18.00;;;;;21.43;63.49;101831.72;5079478;27;45406;-72
2021/06/04 01:07:48;;;;;;;;;22.75;20.00;;;;;21.01;70.60;101866.16;5078708;28;45677;-73
2021/06/04 01:10:22;;;;;;;;;26.75;22.00;;;;;20.68;72.71;101877.19;5078137;28;45336;-73
2021/06/04 01:12:51;;;;;;;;;20.75;18.50;;;;;20.42;71.67;101864.91;5078997;27;45438;-73
2021/06/04 01:15:31;;;;;;;;;27.00;23.00;;;;;20.24;69.72;101849.63;5079122;27;45553;-73
2021/06/04 01:18:09;;;;;;;;;24.50;21.00;;;;;19.93;70.17;101804.81;5078476;27;45732;-73
2021/06/04 01:21:04;;;;;;;;;27.25;24.25;;;;;20.03;69.54;101818.59;5078568;27;45629;-73
2021/06/04 01:23:51;;;;;;;;;23.00;20.25;;;;;20.00;68.91;101808.97;5078515;27;45447;-73
2021/06/04 01:26:25;;;;;;;;;23.75;21.50;;;;;19.94;68.64;101795.09;5077568;28;45591;-73
2021/06/04 01:28:56;;;;;;;;;22.00;20.75;;;;;19.86;67.76;101785.59;5078481;28;47658;-73
2021/06/04 01:31:31;;;;;;;;;29.00;23.00;;;;;19.92;68.42;101796.94;5078379;27;45599;-73
2021/06/04 01:34:03;;;;;;;;;25.50;22.25;;;;;19.96;67.56;101777.34;5078581;28;45233;-73
2021/06/04 01:36:40;;;;;;;;;27.00;23.00;;;;;19.91;67.12;101758.91;5078642;27;45319;-73
2021/06/04 01:39:13;;;;;;;;;22.25;21.25;;;;;19.95;67.56;101767.66;5078375;27;45589;-73
2021/06/04 01:41:41;;;;;;;;;26.00;22.50;;;;;19.93;67.68;101774.81;5078521;27;45248;-73
2021/06/04 01:44:15;;;;;;;;;27.50;25.25;;;;;19.86;67.85;101769.69;5078979;27;45294;-72
2021/06/04 01:46:47;;;;;;;;;26.00;23.25;;;;;19.96;67.46;101786.16;5078855;27;45271;-73
2021/06/04 01:49:18;;;;;;;;;28.75;24.00;;;;;20.01;67.99;101772.72;5078010;27;47392;-73
2021/06/04 01:52:06;;;;;;;;;24.00;21.25;;;;;20.04;68.01;101776.13;5078090;27;45457;-72
2021/06/04 01:54:50;;;;;;;;;25.25;24.25;;;;;20.05;68.17;101775.19;5078595;27;45319;-72
2021/06/04 01:57:58;;;;;;;;;23.75;20.75;;;;;20.05;67.67;101783.16;5078208;28;45347;-72
2021/06/04 02:00:35;;;;;;;;;23.50;23.00;;;;;20.05;67.47;101772.53;5014721;28;47428;-72
2021/06/04 02:03:38;;;;;;;;;26.50;23.75;;;;;20.07;67.38;101768.03;5015606;28;45560;-72
2021/06/04 02:06:04;;;;;;;;;26.00;23.50;;;;;20.07;67.71;101743.31;5015780;28;45505;-71
2021/06/04 02:08:49;;;;;;;;;26.75;22.00;;;;;20.07;67.74;101738.03;5015813;28;45547;-72
2021/06/04 02:11:19;;;;;;;;;26.25;24.25;;;;;20.08;67.25;101734.44;5015518;28;46234;-73
2021/06/04 02:13:46;;;;;;;;;26.00;24.00;;;;;19.96;68.17;101717.22;5015643;28;45310;-72
2021/06/04 02:16:21;;;;;;;;;28.50;25.50;;;;;20.05;67.54;101739.88;5015399;28;45378;-73
2021/06/04 02:19:09;;;;;;;;;27.50;24.50;;;;;20.03;67.97;101752.31;5015500;28;45549;-73
2021/06/04 02:21:44;;;;;;;;;23.00;21.50;;;;;19.95;90.67;101763.22;5014786;28;45408;-73
2021/06/04 02:24:52;;;;;;;;;22.40;21.40;;;;;-142.87;100.00;62491.59;4845867;28;5020781;-73
2021/06/04 02:27:33;;;;;;;;;26.75;24.50;;;;;-142.87;100.00;62491.59;1548649;28;85977270;-72
2021/06/04 02:30:45;;;;;;;;;24.25;23.00;;;;;-142.87;100.00;62491.59;1643382;28;95951955;-72
2021/06/04 02:36:40;;;;;;;;;23.50;22.50;;;;;-142.87;100.00;62491.59;5057995;27;30653;-73
2021/06/04 02:39:15;;;;;;;;;22.00;20.00;;;;;-142.87;100.00;62491.59;5113531;27;28343;-71
2021/06/04 02:41:45;;;;;;;;;27.25;24.75;;;;;-142.87;100.00;62491.59;5113257;27;28447;-72
2021/06/04 02:44:17;;;;;;;;;26.25;23.00;;;;;-142.87;100.00;62491.59;5115505;27;28441;-72
2021/06/04 02:46:50;;;;;;;;;22.00;19.00;;;;;-142.87;100.00;62491.59;5110356;27;86911;-70
2021/06/04 02:52:41;;;;;;;;;25.75;24.00;;;;;-142.87;100.00;62491.59;5100671;27;45459;-68
2021/06/04 02:55:16;;;;;;;;;25.75;24.50;;;;;-142.87;100.00;62491.59;5097696;27;45570;-69
2021/06/04 02:57:41;;;;;;;;;33.75;29.00;;;;;-142.87;100.00;62491.59;5097938;27;45329;-69
2021/06/04 03:00:22;;;;;;;;;29.75;29.50;;;;;-142.87;100.00;62491.59;5097604;27;45405;-70
2021/06/04 03:02:48;;;;;;;;;29.50;26.50;;;;;18.98;96.52;101762.16;5097489;27;47154;-69
2021/06/04 03:05:28;;;;;;;;;29.25;25.25;;;;;-142.87;100.00;62491.59;5097504;27;45702;-68
2021/06/04 03:07:53;;;;;;;;;26.50;21.75;;;;;-142.87;100.00;62491.59;5097678;27;45223;-68
2021/06/04 03:10:29;;;;;;;;;26.00;22.25;;;;;19.56;96.75;101831.75;5098142;27;45466;-69
2021/06/04 03:12:54;;;;;;;;;17.50;15.75;;;;;-142.87;100.00;62491.59;5097661;27;45444;-68
2021/06/04 03:15:30;;;;;;;;;20.25;19.25;;;;;-142.87;100.00;62491.59;5097439;27;45266;-69
2021/06/04 03:17:57;;;;;;;;;25.50;22.00;;;;;-142.87;100.00;62491.59;5097417;27;45272;-68
2021/06/04 03:20:29;;;;;;;;;20.50;18.75;;;;;-142.87;100.00;62491.59;5097612;27;45357;-69
2021/06/04 03:22:54;;;;;;;;;21.25;20.50;;;;;-142.87;100.00;62491.59;5097555;27;45500;-73
2021/06/04 03:25:29;;;;;;;;;24.00;20.50;;;;;-142.87;100.00;62491.59;5097189;27;45284;-70
2021/06/04 03:27:55;;;;;;;;;19.75;16.25;;;;;-142.87;100.00;62491.59;5097350;27;45266;-70
2021/06/04 03:30:26;;;;;;;;;24.00;18.00;;;;;-142.87;100.00;62491.59;5097530;27;45397;-69
2021/06/04 03:32:52;;;;;;;;;16.75;14.00;;;;;-142.87;100.00;62491.59;5099018;27;47425;-70
2021/06/04 03:39:32;;;;;;;;;19.75;18.00;;;;;-142.87;100.00;62491.59;5096103;27;45531;-70
2021/06/04 03:41:59;;;;;;;;;18.75;18.50;;;;;-142.87;100.00;62491.59;5101108;27;45282;-70
2021/06/04 03:44:28;;;;;;;;;21.50;19.75;;;;;21.72;96.93;101617.78;5100579;27;45693;-69
2021/06/04 03:46:54;;;;;;;;;21.50;21.50;;;;;-142.87;100.00;62491.59;5100669;27;45388;-69
2021/06/04 03:52:43;;;;;;;;;25.00;22.75;;;;;21.72;100.00;101617.78;5100844;27;45213;-70
2021/06/04 03:55:09;;;;;;;;;24.25;24.25;;;;;-142.87;100.00;62491.59;5100497;27;46217;-69
2021/06/04 03:57:37;;;;;;;;;28.25;25.75;;;;;-142.87;100.00;62491.59;5100522;27;45365;-68
2021/06/04 04:00:12;;;;;;;;;29.00;21.00;;;;;-142.87;100.00;62491.59;5099244;27;45292;-69
2021/06/04 04:02:38;;;;;;;;;23.50;22.00;;;;;-142.87;100.00;62491.59;5101023;27;45367;-70
2021/06/04 04:08:28;;;;;;;;;26.00;23.00;;;;;-142.87;100.00;62491.59;5100341;27;45448;-68
2021/06/04 04:10:56;;;;;;;;;26.25;21.25;;;;;-142.87;100.00;62491.59;5100721;27;45236;-69
2021/06/04 04:13:23;;;;;;;;;23.50;23.25;;;;;-142.87;100.00;62491.59;5100512;27;45484;-69
2021/06/04 04:15:50;;;;;;;;;27.00;23.00;;;;;-142.87;100.00;62491.59;5100230;27;46060;-69
2021/06/04 04:18:16;;;;;;;;;22.75;22.00;;;;;-142.87;100.00;62491.59;5100182;27;45339;-69
2021/06/04 04:20:51;;;;;;;;;27.00;24.00;;;;;21.72;96.93;101617.78;5100242;27;45272;-68
2021/06/04 04:23:22;;;;;;;;;27.25;22.75;;;;;21.87;97.08;101440.75;5100480;27;45359;-69
2021/06/04 04:25:48;;;;;;;;;31.25;28.75;;;;;21.75;97.64;101426.28;5099939;27;47075;-69
2021/06/04 04:28:25;;;;;;;;;28.50;25.25;;;;;-142.87;100.00;62491.59;5100295;27;45476;-68
2021/06/04 04:30:51;;;;;;;;;34.00;30.25;;;;;21.46;97.89;101421.50;5100283;27;45449;-69
2021/06/04 04:33:16;;;;;;;;;31.50;27.25;;;;;21.70;97.70;101418.50;5100138;27;45476;-69
2021/06/04 04:35:43;;;;;;;;;26.25;24.75;;;;;-142.87;100.00;62491.59;5100069;27;45568;-69
2021/06/04 04:38:10;;;;;;;;;28.25;25.50;;;;;21.57;97.55;101449.31;5099783;27;45367;-69
2021/06/04 04:40:38;;;;;;;;;29.25;24.50;;;;;-142.87;100.00;62491.59;5099957;27;45192;-69
2021/06/04 04:43:05;;;;;;;;;33.75;29.50;;;;;-142.87;100.00;62491.59;5099569;27;45392;-68
2021/06/04 04:45:32;;;;;;;;;59.75;48.50;;;;;-142.87;100.00;62491.59;5099346;27;46233;-68
2021/06/04 04:47:59;;;;;;;;;27.50;25.25;;;;;21.78;41.59;101502.34;5099846;27;45230;-68
2021/06/04 04:53:46;;;;;;;;;24.00;22.25;;;;;21.51;83.81;101513.38;5099894;27;45358;-69
2021/06/04 04:56:13;;;;;;;;;22.00;21.00;;;;;21.58;86.04;101498.88;5099794;27;45382;-69
2021/06/04 04:58:39;;;;;;;;;23.75;21.50;;;;;21.58;86.90;101480.25;5099979;27;45692;-69
2021/06/04 05:01:08;;;;;;;;;23.75;22.00;;;;;21.53;87.54;101542.53;5099486;27;45286;-69
2021/06/04 05:03:34;;;;;;;;;22.75;21.00;;;;;21.39;88.08;101533.41;5099643;27;45439;-69
2021/06/04 05:06:00;;;;;;;;;21.50;19.25;;;;;21.39;88.31;101525.44;5099309;27;46347;-69
2021/06/04 05:08:26;;;;;;;;;20.50;19.25;;;;;-142.87;100.00;62491.59;5099498;27;45579;-69
2021/06/04 05:10:51;;;;;;;;;18.25;17.00;;;;;21.46;91.43;101538.44;5099552;27;45615;-68
2021/06/04 05:13:19;;;;;;;;;20.00;18.00;;;;;21.37;91.11;101569.81;5099585;27;45496;-70
2021/06/04 05:15:44;;;;;;;;;17.75;16.75;;;;;21.26;90.42;101635.84;5098215;27;48174;-69
2021/06/04 05:18:13;;;;;;;;;19.00;15.75;;;;;20.66;90.09;101616.31;5099517;27;45279;-69
2021/06/04 05:24:02;;;;;;;;;4.00;3.75;;;;;16.36;88.47;101742.88;5099457;27;45401;-67
2021/06/04 05:26:28;;;;;;;;;1.00;0.50;;;;;16.29;94.47;101701.72;5099066;27;46077;-76
2021/06/04 05:28:53;;;;;;;;;4.50;1.00;;;;;-142.87;100.00;62491.59;5099251;27;45374;-72
2021/06/04 05:31:20;;;;;;;;;3.75;2.50;;;;;-142.87;100.00;62491.59;5099078;27;45392;-83
2021/06/04 05:33:48;;;;;;;;;4.75;2.00;;;;;-142.87;100.00;62491.59;5099344;27;45441;-83
2021/06/04 05:36:21;;;;;;;;;3.75;1.50;;;;;-142.87;100.00;62491.59;5098950;27;46335;-74
2021/06/04 05:38:47;;;;;;;;;3.50;1.50;;;;;-142.87;100.00;62491.59;5098407;27;45354;-72
2021/06/04 05:41:14;;;;;;;;;2.00;2.00;;;;;-142.87;100.00;62491.59;5098907;27;45352;-72
2021/06/04 05:43:42;;;;;;;;;1.50;1.00;;;;;-142.87;100.00;62491.59;5099060;27;45433;-70
2021/06/04 05:46:10;;;;;;;;;5.50;2.00;;;;;-142.87;100.00;62491.59;5099024;27;46329;-69
2021/06/04 05:48:36;;;;;;;;;3.75;3.50;;;;;-142.87;100.00;62491.59;5098761;27;45361;-68
2021/06/04 05:54:25;;;;;;;;;4.25;4.00;;;;;-142.87;100.00;62491.59;5098656;27;45442;-69
2021/06/04 05:56:51;;;;;;;;;4.00;3.00;;;;;-142.87;100.00;62491.59;5098488;27;46305;-69
2021/06/04 05:59:17;;;;;;;;;3.00;3.00;;;;;-142.87;100.00;62491.59;5098596;27;45466;-69
2021/06/04 06:01:46;;;;;;;;;3.75;3.25;;;;;-142.87;100.00;62491.59;5098689;27;45346;-67
2021/06/04 06:04:12;;;;;;;;;6.75;6.00;;;;;-142.87;100.00;62491.59;5098638;27;45233;-67
2021/06/04 06:06:37;;;;;;;;;5.50;5.00;;;;;-142.87;100.00;62491.59;5098173;27;46434;-66
2021/06/04 06:09:05;;;;;;;;;8.25;6.50;;;;;-142.87;100.00;62491.59;5097843;27;45362;-66
